Go Pro

FT Vest U.S. Equity Buffer ETF - August (FAUG) Institutional Ownership

FT Vest U.S. Equity Buffer ETF - August logo
$58.01 +0.36 (+0.62%)
As of 09/3/2026 04:10 PM Eastern

Institutional Ownership Changes (13F Filings) for FT Vest U.S. Equity Buffer ETF - August (BATS:FAUG)

Number of
Institutional Buyers
(last 12 months)
106
Total
Institutional Inflows
(last 12 months)
$97.20M
Number of
Institutional Sellers
(last 12 months)
75
Total
Institutional Outflows
(last 12 months)
$48.93M
Get FAUG Insider Trade Alerts

Want to know when executives and insiders are buying or selling FT Vest U.S. Equity Buffer ETF - August stock? Sign up for InsiderTrades.com's daily newsletter to get the latest insider transactions delivered to your inbox daily.

SMS is currently available in Australia, Belgium, Canada, France, Germany, Ireland, Italy, New Zealand, the Netherlands, Singapore, South Africa, Spain, Switzerland, the United Kingdom, and the United States. By entering your phone number and clicking the sign-up button, you agree to receive periodic text messages from MarketBeat at the phone number you submitted, including texts that may be sent using an automatic telephone dialing system. Message and data rates may apply. Message frequency will vary. Messages will consist of stock alerts, news stories, and partner advertisements/offers. Consent is not a condition of the purchase of any goods or services. Text HELP for help/customer support. Unsubscribe at any time by replying "STOP" to any text message that you receive from MarketBeat or by visiting our mailing preferences page. Read our full terms of service and privacy policy.
Skip Chart & View Institutional Buying and Selling Data

FAUG Institutional Buying and Selling by Quarter

FT Vest U.S. Equity Buffer ETF - August Major Shareholders & Ownership History

Reporting DateMajor Shareholder NameShares HeldMarket Value% of PortfolioQuarterly Change in SharesOwnership in CompanyDetails
9/2/2026 Citadel Advisors LLC11,425$646K0.0%N/A0.060%
8/26/2026 Schulz Wealth LTD.6,247$353K0.2%N/A0.033%
8/23/2026 Ameritas Advisory Services LLC44,969$2.54M0.1%+176.4%0.236%
8/22/2026 NI Acquisitions Company LLC4,005$226K0.1%N/A0.021%
8/22/2026 Timbuktu Capital Management LLC1,000$57K0.1%N/A0.005%
8/22/2026 SMART Wealth LLC37,007$2.09M0.5%-39.3%0.194%
8/22/2026 Concurrent Investment Advisors LLC12,787$723K0.0%+4.8%0.067%
8/21/2026 Integrity Financial Corp WA23,315$1.32M0.6%-12.7%0.123%
8/21/2026 Beacon Financial Advisory LLC9,664$546K0.1%-10.2%0.051%
7/10/2026 Accel Wealth Management29,589$1.67M0.4%-8.1%0.155%
7/10/2026 Wealthcare Advisory Partners LLC245,697$13.88M0.3%+4.6%1.291%
7/8/2026 First Heartland Consultants Inc.32,080$1.81M0.1%-0.6%0.169%
7/7/2026 CoreCap Advisors LLC14,121$798K0.0%+2.5%0.074%
6/3/2026 NewEdge Advisors LLC38,158$1.98M0.0%-0.6%0.201%
5/20/2026 SOA Wealth Advisors LLC.6,393$331K0.0%-19.9%0.034%
5/20/2026 Leigh Baldwin & CO. LLC4,415$229K0.1%-90.1%0.023%
5/19/2026 NewEdge Advisors LLC38,158$1.98M0.0%-0.6%0.201%
5/19/2026 Centaurus Financial Inc.8,276$429K0.0%-3.5%0.043%
5/18/2026Sunbelt Securities Inc.10,349$536K0.0%-8.3%0.054%
5/18/2026 Royal Bank of Canada32,565$1.69M0.0%-3.9%0.171%
5/15/2026 Gateway Wealth Partners LLC6,668$345K0.0%N/A0.035%
5/14/2026 Modern Wealth Management LLC22,539$1.17M0.0%-1.1%0.118%
5/13/2026 Cetera Investment Advisers189,071$9.79M0.0%-46.8%0.994%
5/13/2026 NewEdge Wealth LLC8,104$420K0.0%-2.7%0.043%
5/13/2026 First Trust Advisors LP10,117$524K0.0%-22.8%0.053%
5/6/2026 Assetmark Inc.271,086$14.04M0.0%+11.2%1.425%
5/4/2026 Bleakley Financial Group LLC25,030$1.30M0.0%-7.9%0.132%
5/1/2026 Darwin Wealth Management LLC2,962$153K0.0%-65.2%0.016%
5/1/2026 Arbor Capital Management Inc. ADV8,162$430K0.4%-5.4%0.043%
4/30/2026 Kestra Advisory Services LLC112,826$5.84M0.0%+18.3%0.593%
4/29/2026 Integrated Advisors Network LLC33,797$1.75M0.1%-8.3%0.178%
4/28/2026 Stephens Inc. AR47,066$2.44M0.0%-1.1%0.247%
4/27/2026 Private Advisor Group LLC4,470$231K0.0%N/A0.023%
4/24/2026 Semus Wealth Partners LLC80,459$4.17M2.3%-2.6%0.423%
4/24/2026 SMART Wealth LLC60,980$3.16M0.9%-10.1%0.320%
4/22/2026 Janney Montgomery Scott LLC26,128$1.35M0.0%-3.7%0.137%
4/22/2026 Onyx Bridge Wealth Group LLC14,878$770K0.1%-1.3%0.078%
4/22/2026 FWG Investments LLC.23,278$1.21M0.8%-2.5%0.122%
4/20/2026 Kestra Private Wealth Services LLC7,780$403K0.0%-16.5%0.041%
4/20/2026 RFG Advisory LLC14,487$750K0.0%+11.0%0.076%
Three companies about to leapfrog Nvidia [And transform the entire industry] (Ad)

AI data centers have a power problem nobody likes to talk about. A single rack of computers can now use more electricity than an entire office building. One new chip, which looks more like a piece of plywood than a processor, delivers similar performance on a fraction of the power. Tech investing veteran George Gilder says that efficiency gap could decide who wins the next stage of AI. Gilder has identified three companies positioned around this power breakthrough, calling them the Trillion Dollar Triangle.tc pixel

See the three companies behind this AI power breakthrough now
4/18/2026 Faithward Advisors LLC15,886$823K0.1%-1.5%0.083%
4/17/2026 Signal Advisors Wealth LLC9,557$495K0.0%-52.2%0.050%
4/16/2026 Cambridge Advisors Inc.7,200$373K0.1%-4.0%0.038%
4/16/2026 Founders Financial Securities LLC28,803$1.54M0.1%+9.0%0.151%
3/4/2026 Stenger Family Office LLC415,094$21.98M4.5%-1.7%2.181%
2/19/2026 Axxcess Wealth Management LLC5,974$316K0.0%N/A0.031%
2/18/2026Skyview Financial Group LLC5,802$307K0.3%N/A0.030%
2/18/2026 Onyx Bridge Wealth Group LLC15,071$798K0.1%+1.3%0.079%
2/18/2026 NewEdge Advisors LLC38,387$2.03M0.0%-1.6%0.202%
2/18/2026 VestGen Investment Management17,464$925K0.5%+11.7%0.092%
2/18/2026 OLD Mission Capital LLC7,407$392K0.0%-86.6%0.039%
2/17/2026 Integrated Advisors Network LLC36,869$1.95M0.1%+20.6%0.194%
2/17/2026 AQR Capital Management LLC8,468$448K0.0%N/A0.044%
2/17/2026 Cetera Investment Advisers355,713$18.84M0.0%-13.9%1.869%
2/17/2026 Regal Investment Advisors LLC91,315$4.84M0.3%-6.6%0.480%
2/17/2026 Osaic Holdings Inc.185,367$9.82M0.0%-24.2%0.974%
2/17/2026 Faithward Advisors LLC16,120$854K0.1%+53.2%0.085%
2/16/2026 MML Investors Services LLC71,404$3.78M0.0%+1.8%0.375%
2/16/2026 Mariner LLC16,434$870K0.0%+30.8%0.086%
2/16/2026 Icon Wealth Advisors LLC34,825$1.84M0.1%-3.2%0.183%
2/16/2026 Integrity Financial Corp WA27,766$1.47M0.7%+10.6%0.146%
2/13/2026 Kestra Advisory Services LLC95,338$5.05M0.0%+4.6%0.501%
2/13/2026 Uniting Wealth Partners LLC5,964$316K0.1%-10.4%0.031%
2/13/2026 Wells Fargo & Company MN884$47K0.0%N/A0.005%
2/12/2026 HRT Financial LP10,623$562K0.0%N/A0.056%
2/12/2026 Orion Porfolio Solutions LLC12,665$671K0.0%+2.6%0.067%
2/12/2026 Commonwealth Equity Services LLC135,567$7.18M0.0%-15.3%0.712%
2/12/2026 Wood Tarver Financial Group LLC22,738$1.20M0.3%-1.7%0.119%
2/12/2026 Leigh Baldwin & CO. LLC44,605$2.36M1.6%-58.4%0.234%
2/12/2026 Steward Partners Investment Advisory LLC36,642$1.94M0.0%-73.8%0.193%
2/11/2026 Janney Montgomery Scott LLC27,128$1.44M0.0%+1.1%0.143%
2/11/2026 1776 Wealth LLC20,671$1.10M0.4%-2.3%0.109%
2/11/2026 LPL Financial LLC102,120$5.41M0.0%-0.3%0.537%
2/10/2026 REAP Financial Group LLC123,784$6.55M1.3%-2.5%0.650%
2/10/2026 Founders Financial Securities LLC26,425$1.40M0.1%+12.5%0.139%
2/9/2026 Kingsview Wealth Management LLC9,906$525K0.0%+4.0%0.052%
2/9/2026 Valtinson Bruner Financial Planning LLC8,748$463K0.1%-65.1%0.046%
2/9/2026 Integrity Alliance LLC.19,328$1.02M0.0%N/A0.102%
2/9/2026 Bleakley Financial Group LLC27,185$1.44M0.0%-16.9%0.143%
2/9/2026 Harbour Investments Inc.26,639$1.41M0.0%-4.4%0.140%
2/9/2026 HBK Sorce Advisory LLC6,181$331K0.0%-4.3%0.032%
2/9/2026 Prospera Financial Services Inc8,779$465K0.0%-6.0%0.046%
2/6/2026 Ignite Planners LLC78,391$4.19M0.6%-5.2%0.412%
2/6/2026 Axxcess Wealth Management LLC8,502$450K0.0%N/A0.045%
2/6/2026 Great Diamond Partners LLC3,850$204K0.0%N/A0.020%
2/6/2026 PNC Financial Services Group Inc.17,142$908K0.0%-2.6%0.090%
2/6/2026 Stolz & Associates PS5,888$312K0.2%N/A0.031%
2/6/2026 Csenge Advisory Group4,517$239K0.0%N/A0.024%
2/6/2026 HighTower Advisors LLC16,799$890K0.0%+15.9%0.088%
2/6/2026 Envestnet Portfolio Solutions Inc.4,838$256K0.0%-5.8%0.025%
Three companies about to leapfrog Nvidia [And transform the entire industry] (Ad)

AI data centers have a power problem nobody likes to talk about. A single rack of computers can now use more electricity than an entire office building. One new chip, which looks more like a piece of plywood than a processor, delivers similar performance on a fraction of the power. Tech investing veteran George Gilder says that efficiency gap could decide who wins the next stage of AI. Gilder has identified three companies positioned around this power breakthrough, calling them the Trillion Dollar Triangle.tc pixel

See the three companies behind this AI power breakthrough now
2/5/2026 Stephens Inc. AR47,568$2.52M0.0%-1.6%0.250%
2/5/2026 Schulz Wealth LTD.6,247$331K0.2%-15.9%0.033%
2/5/2026 Atria Investments Inc130,639$6.92M0.1%-2.3%0.686%
2/4/2026 Ameritas Advisory Services LLC15,618$827K0.0%-27.7%0.082%
2/3/2026 NewEdge Wealth LLC8,330$441K0.0%-4.4%0.044%
2/3/2026 RFG Advisory LLC13,056$691K0.0%+10.4%0.069%
2/2/2026 Truist Financial Corp26,705$1.41M0.0%+1.7%0.140%
2/2/2026 Aurora Private Wealth Inc.12,334$653K0.4%N/A0.065%
2/2/2026 LVZ Inc.3,907$207K0.0%N/A0.021%
1/30/2026 Strategic Blueprint LLC23,322$1.24M0.1%+192.4%0.123%


FAUG Institutional Ownership - Frequently Asked Questions

During the previous two years, 185 institutional investors and hedge funds held shares of FT Vest U.S. Equity Buffer ETF - August. The most heavily invested institutionals were Envestnet Asset Management Inc. ($29.86M), Stenger Family Office LLC ($21.98M), Raymond James Financial Inc. ($17.29M), CWM LLC ($16.31M), Assetmark Inc. ($14.04M), Wealthcare Advisory Partners LLC ($13.88M), and Osaic Holdings Inc. ($9.82M).Learn more on FT Vest U.S. Equity Buffer ETF - August's institutional investors.

Of the 159 institutional investors that purchased FT Vest U.S. Equity Buffer ETF - August's stock in the last 24 months, the following investors and hedge funds have bought the highest volume of shares: Raymond James Financial Inc. ($747.18K), Envestnet Asset Management Inc. ($548.14K), Stenger Family Office LLC ($422.30K), Assetmark Inc. ($248.75K), CreativeOne Wealth LLC ($200.65K), Legacy Capital Wealth Partners LLC ($191.95K), and WealthPlan Investment Management LLC ($166.52K).

Institutional investors have bought a total of 1,862,081 shares in the last 24 months. This purchase volume represents approximately $97.20M in transactions.

Of the 75 institutional investors that sold FT Vest U.S. Equity Buffer ETF - August's stock in the last 24 months, the following investors and hedge funds have sold the highest volume of shares: Cetera Investment Advisers ($224.28K), Steward Partners Investment Advisory LLC ($103.30K), Leigh Baldwin & CO. LLC ($102.90K), Osaic Holdings Inc. ($59.18K), SMART Wealth LLC ($53.46K), OLD Mission Capital LLC ($47.83K), and CWM LLC ($40.59K).

Institutional investors have sold a total of 929,861 shares in the last 24 months. This volume of shares sold represents approximately $48.93M in transactions.



Institutional ownership data for BATS:FAUG is compiled from quarterly 13F filings submitted to the U.S. Securities and Exchange Commission (SEC), with the most recent received on 9/2/2026. New 13F filings are added each quarter as they're published.
From Our Partners